createdAt,value
2023-01-19T00:00:29.614Z,14.40
2023-01-19T00:02:56.311Z,12.50
2023-01-19T00:05:22.799Z,12.73
2023-01-19T00:07:49.356Z,16.02
2023-01-19T00:10:16.325Z,19.23
2023-01-19T00:12:42.884Z,10.77
2023-01-19T00:15:09.793Z,11.23
2023-01-19T00:17:36.237Z,9.23
2023-01-19T00:20:03.988Z,12.05
2023-01-19T00:22:30.509Z,9.93
2023-01-19T00:24:56.945Z,9.70
2023-01-19T00:27:23.443Z,4.43
2023-01-19T00:29:49.886Z,3.17
2023-01-19T00:32:17.863Z,3.08
2023-01-19T00:34:49.336Z,3.70
2023-01-19T00:37:17.362Z,2.40
2023-01-19T00:39:43.859Z,1.50
2023-01-19T00:42:32.217Z,2.35
2023-01-19T00:44:58.757Z,2.00
2023-01-19T00:47:25.207Z,2.03
2023-01-19T00:49:51.763Z,4.32
2023-01-19T00:52:18.197Z,2.83
2023-01-19T00:54:44.630Z,8.68
2023-01-19T00:57:11.135Z,4.75
2023-01-19T00:59:37.579Z,6.17
2023-01-19T01:02:04.143Z,8.95
2023-01-19T01:04:30.983Z,6.60
2023-01-19T01:06:57.502Z,11.50
2023-01-19T01:09:24.280Z,10.32
2023-01-19T01:11:50.716Z,13.90
2023-01-19T01:14:18.221Z,15.48
2023-01-19T01:16:44.758Z,12.93
2023-01-19T01:19:11.339Z,11.15
2023-01-19T01:21:37.799Z,12.90
2023-01-19T01:24:05.039Z,12.93
2023-01-19T01:26:31.507Z,8.82
2023-01-19T01:28:58.025Z,9.60
2023-01-19T01:31:24.495Z,7.47
2023-01-19T01:33:50.971Z,11.50
2023-01-19T01:36:20.786Z,7.40
2023-01-19T01:38:47.250Z,6.70
2023-01-19T01:41:14.007Z,9.00
2023-01-19T01:43:42.675Z,7.93
2023-01-19T01:46:09.273Z,8.88
2023-01-19T01:48:38.437Z,6.20
2023-01-19T01:51:27.035Z,5.18
2023-01-19T01:54:21.561Z,7.75
2023-01-19T01:56:51.439Z,5.38
2023-01-19T01:59:34.643Z,5.45
2023-01-19T02:02:48.833Z,5.73
2023-01-19T02:05:21.051Z,5.97
2023-01-19T02:08:21.825Z,1.80
2023-01-19T02:11:07.727Z,4.10
2023-01-19T02:13:39.947Z,1.80
2023-01-19T02:16:08.595Z,1.57
2023-01-19T02:18:35.524Z,1.55
2023-01-19T02:21:18.968Z,1.52
2023-01-19T02:23:54.447Z,0.73
2023-01-19T02:26:31.084Z,1.95
2023-01-19T02:29:00.408Z,1.87
2023-01-19T02:31:28.925Z,7.55
2023-01-19T02:33:56.515Z,1.95
2023-01-19T02:36:28.759Z,0.40
2023-01-19T02:38:59.044Z,6.60
2023-01-19T02:41:30.981Z,3.87
2023-01-19T02:43:58.896Z,1.98
2023-01-19T02:46:25.802Z,4.00
2023-01-19T02:48:52.261Z,3.17
2023-01-19T02:51:24.056Z,6.28
2023-01-19T02:54:16.269Z,1.53
2023-01-19T02:56:51.202Z,6.47
2023-01-19T02:59:40.512Z,4.03
2023-01-19T03:02:19.871Z,2.90
2023-01-19T03:05:28.210Z,8.52
2023-01-19T03:08:03.490Z,2.90
2023-01-19T03:10:49.170Z,3.67
2023-01-19T03:13:32.917Z,3.88
2023-01-19T03:16:12.256Z,2.05
2023-01-19T03:18:42.900Z,3.60
2023-01-19T03:21:10.771Z,2.40
2023-01-19T03:23:41.481Z,1.55
2023-01-19T03:26:13.106Z,0.70
2023-01-19T03:28:42.809Z,7.82
2023-01-19T03:31:15.230Z,2.33
2023-01-19T03:33:46.188Z,6.23
2023-01-19T03:36:19.761Z,2.08
2023-01-19T03:38:48.935Z,0.28
2023-01-19T03:41:17.687Z,3.53
2023-01-19T03:43:46.569Z,3.28
2023-01-19T03:46:17.370Z,0.33
2023-01-19T03:48:45.760Z,2.03
2023-01-19T03:51:14.323Z,2.55
2023-01-19T03:53:41.623Z,2.05
2023-01-19T03:56:18.150Z,3.58
2023-01-19T03:58:45.042Z,0.40
2023-01-19T04:01:11.645Z,3.28
2023-01-19T04:03:38.200Z,2.25
2023-01-19T04:06:04.780Z,6.07
2023-01-19T04:08:32.535Z,2.08
2023-01-19T04:10:59.010Z,1.13
2023-01-19T04:13:28.143Z,1.40
2023-01-19T04:15:54.628Z,0.98
2023-01-19T04:18:21.134Z,0.70
2023-01-19T04:20:47.548Z,1.20
2023-01-19T04:23:13.987Z,2.10
2023-01-19T04:25:40.445Z,1.45
2023-01-19T04:28:06.911Z,5.97
2023-01-19T04:30:33.337Z,1.30
2023-01-19T04:33:00.285Z,1.02
2023-01-19T04:35:27.038Z,1.80
2023-01-19T04:37:53.421Z,3.45
2023-01-19T04:40:19.989Z,2.38
2023-01-19T04:42:47.068Z,0.85
2023-01-19T04:45:13.978Z,5.25
2023-01-19T04:47:42.612Z,1.33
2023-01-19T04:50:10.570Z,1.75
2023-01-19T04:52:37.080Z,0.70
2023-01-19T04:55:05.798Z,1.27
2023-01-19T04:57:32.415Z,2.05
2023-01-19T04:59:58.911Z,1.77
2023-01-19T05:02:25.935Z,4.35
2023-01-19T05:04:52.438Z,4.40
2023-01-19T05:07:18.910Z,2.78
2023-01-19T05:09:45.709Z,2.30
2023-01-19T05:12:12.289Z,2.10
2023-01-19T05:14:38.823Z,2.15
2023-01-19T05:17:05.292Z,2.13
2023-01-19T05:19:31.783Z,8.00
2023-01-19T05:21:58.256Z,4.18
2023-01-19T05:24:24.766Z,8.60
2023-01-19T05:26:51.190Z,1.63
2023-01-19T05:29:17.625Z,1.75
2023-01-19T05:31:45.172Z,5.97
2023-01-19T05:34:12.165Z,4.47
2023-01-19T05:36:38.835Z,19.53
2023-01-19T05:39:05.281Z,6.57
2023-01-19T05:41:31.868Z,3.60
2023-01-19T05:43:58.344Z,12.30
2023-01-19T05:46:25.334Z,10.38
2023-01-19T05:48:51.747Z,6.87
2023-01-19T05:51:18.203Z,10.95
2023-01-19T05:53:44.616Z,8.63
2023-01-19T05:56:11.640Z,10.40
2023-01-19T05:58:41.451Z,4.63
2023-01-19T06:01:10.090Z,7.13
2023-01-19T06:03:37.305Z,25.02
2023-01-19T06:06:04.135Z,8.65
2023-01-19T06:08:30.992Z,14.05
2023-01-19T06:10:57.512Z,2.75
2023-01-19T06:13:24.055Z,11.23
2023-01-19T06:15:57.421Z,3.70
2023-01-19T06:18:23.933Z,21.88
2023-01-19T06:20:52.122Z,31.25
2023-01-19T06:23:18.580Z,33.88
2023-01-19T06:25:44.991Z,6.87
2023-01-19T06:28:11.390Z,17.42
2023-01-19T06:30:37.824Z,23.05
2023-01-19T06:33:04.256Z,10.85
2023-01-19T06:35:30.756Z,4.10
2023-01-19T06:37:57.191Z,1.97
2023-01-19T06:40:23.662Z,5.22
2023-01-19T06:42:50.213Z,7.53
2023-01-19T06:45:16.701Z,4.40
2023-01-19T06:47:43.143Z,10.38
2023-01-19T06:50:10.120Z,1.37
2023-01-19T06:52:42.302Z,9.13
2023-01-19T06:55:10.955Z,12.98
2023-01-19T06:57:38.868Z,8.23
2023-01-19T07:00:08.130Z,18.33
2023-01-19T07:02:35.736Z,18.43
2023-01-19T07:05:02.264Z,12.45
2023-01-19T07:07:28.737Z,7.72
2023-01-19T07:09:55.173Z,17.48
2023-01-19T07:12:22.975Z,11.50
2023-01-19T07:14:49.734Z,9.57
2023-01-19T07:17:16.468Z,6.13
2023-01-19T07:19:42.947Z,13.05
2023-01-19T07:22:11.255Z,4.38
2023-01-19T07:24:38.074Z,5.35
2023-01-19T07:27:05.361Z,7.70
2023-01-19T07:29:31.862Z,2.97
2023-01-19T07:31:58.323Z,6.28
2023-01-19T07:34:24.747Z,8.38
2023-01-19T07:36:51.210Z,6.10
2023-01-19T07:39:17.643Z,15.70
2023-01-19T07:41:44.153Z,10.82
2023-01-19T07:44:10.614Z,11.35
2023-01-19T07:46:37.032Z,10.65
2023-01-19T07:49:03.623Z,19.67
2023-01-19T07:51:30.083Z,14.97
2023-01-19T07:53:56.614Z,50.10
2023-01-19T07:56:24.263Z,36.28
2023-01-19T07:58:52.373Z,23.15
2023-01-19T08:01:19.115Z,21.65
2023-01-19T08:03:47.734Z,17.57
2023-01-19T08:06:27.741Z,12.15
2023-01-19T08:08:54.210Z,11.15
2023-01-19T08:11:20.654Z,11.95
2023-01-19T08:13:47.128Z,13.25
2023-01-19T08:16:13.678Z,14.47
2023-01-19T08:18:40.175Z,17.30
2023-01-19T08:21:06.687Z,11.77
2023-01-19T08:23:33.336Z,18.65
2023-01-19T08:25:59.929Z,15.10
2023-01-19T08:28:26.366Z,13.60
2023-01-19T08:30:55.823Z,9.07
2023-01-19T08:33:23.965Z,9.27
2023-01-19T08:35:53.117Z,8.10
2023-01-19T08:38:20.218Z,13.93
2023-01-19T08:40:46.723Z,7.70
2023-01-19T08:43:17.294Z,7.28
2023-01-19T08:45:49.131Z,10.57
2023-01-19T08:48:17.723Z,8.32
2023-01-19T08:50:47.680Z,8.38
2023-01-19T08:53:14.958Z,12.37
2023-01-19T08:55:41.999Z,10.40
2023-01-19T08:58:09.203Z,4.63
2023-01-19T09:00:38.265Z,12.75
2023-01-19T09:03:11.224Z,11.07
2023-01-19T09:05:39.054Z,23.40
2023-01-19T09:08:09.226Z,20.83
2023-01-19T09:10:38.126Z,12.52
2023-01-19T09:13:10.993Z,9.55
2023-01-19T09:15:39.028Z,7.32
2023-01-19T09:18:07.926Z,7.10
2023-01-19T09:20:36.150Z,6.00
2023-01-19T09:23:02.993Z,4.15
2023-01-19T09:25:29.504Z,7.63
2023-01-19T09:27:56.229Z,13.75
2023-01-19T09:30:22.817Z,4.20
2023-01-19T09:32:49.289Z,10.70
2023-01-19T09:35:16.335Z,3.42
2023-01-19T09:37:47.181Z,4.88
2023-01-19T09:40:16.561Z,6.47
2023-01-19T09:42:45.105Z,5.70
2023-01-19T09:45:19.691Z,7.70
2023-01-19T09:47:49.098Z,10.15
2023-01-19T09:50:30.711Z,6.45
2023-01-19T09:53:05.258Z,12.82
2023-01-19T09:55:31.683Z,4.17
2023-01-19T09:57:58.733Z,8.63
2023-01-19T10:00:28.702Z,7.20
2023-01-19T10:03:16.339Z,7.40
2023-01-19T10:05:48.841Z,7.20
2023-01-19T10:09:00.811Z,16.00
2023-01-19T10:12:12.581Z,6.82
2023-01-19T10:14:49.978Z,6.80
2023-01-19T10:17:45.615Z,10.40
2023-01-19T10:20:21.456Z,5.80
2023-01-19T10:22:49.299Z,6.07
2023-01-19T10:25:23.114Z,8.77
2023-01-19T10:27:49.758Z,10.77
2023-01-19T10:30:23.687Z,1.50
2023-01-19T10:32:51.112Z,6.18
2023-01-19T10:35:27.148Z,10.10
2023-01-19T10:38:00.653Z,8.55
2023-01-19T10:40:33.258Z,5.95
2023-01-19T10:42:59.948Z,3.08
2023-01-19T10:45:30.171Z,11.15
2023-01-19T10:48:06.905Z,17.63
2023-01-19T10:50:37.181Z,8.38
2023-01-19T10:53:06.065Z,8.85
2023-01-19T10:55:37.995Z,7.65
2023-01-19T10:58:06.823Z,6.13
2023-01-19T11:00:43.495Z,1.43
2023-01-19T11:03:29.659Z,9.07
2023-01-19T11:06:20.622Z,10.73
2023-01-19T11:08:51.314Z,4.28
2023-01-19T11:11:19.496Z,10.27
2023-01-19T11:14:04.736Z,8.10
2023-01-19T11:16:34.841Z,7.57
2023-01-19T11:19:03.166Z,12.38
2023-01-19T11:21:32.176Z,7.70
2023-01-19T11:24:08.721Z,3.15
2023-01-19T11:26:42.443Z,3.07
2023-01-19T11:29:24.300Z,4.30
2023-01-19T11:31:52.289Z,6.57
2023-01-19T11:34:33.740Z,2.53
2023-01-19T11:37:02.753Z,6.85
2023-01-19T11:39:32.238Z,6.40
2023-01-19T11:42:04.861Z,3.15
2023-01-19T11:44:35.225Z,18.38
2023-01-19T11:47:12.475Z,4.82
2023-01-19T11:50:15.277Z,7.00
2023-01-19T11:53:10.925Z,3.23
2023-01-19T11:55:49.396Z,5.75
2023-01-19T11:58:17.862Z,7.70
2023-01-19T12:00:57.450Z,11.23
2023-01-19T12:03:27.800Z,11.18
2023-01-19T12:06:00.160Z,4.63
2023-01-19T12:08:36.141Z,10.75
2023-01-19T12:11:04.151Z,7.20
2023-01-19T12:13:32.733Z,8.98
2023-01-19T12:16:10.139Z,7.07
2023-01-19T12:18:41.195Z,9.00
2023-01-19T12:21:07.876Z,7.40
2023-01-19T12:23:46.480Z,6.95
2023-01-19T12:26:34.828Z,2.80
2023-01-19T12:29:11.546Z,3.92
2023-01-19T12:31:40.578Z,6.10
2023-01-19T12:34:31.266Z,16.25
2023-01-19T12:37:03.792Z,5.78
2023-01-19T12:39:32.086Z,6.10
2023-01-19T12:42:12.849Z,2.00
2023-01-19T12:44:39.973Z,8.73
2023-01-19T12:47:15.205Z,7.50
2023-01-19T12:49:48.939Z,1.70
2023-01-19T12:52:51.371Z,13.23
2023-01-19T12:55:23.147Z,6.28
2023-01-19T12:57:56.915Z,8.23
2023-01-19T13:00:23.308Z,5.43
2023-01-19T13:03:05.184Z,10.98
2023-01-19T13:05:32.859Z,13.45
2023-01-19T13:08:02.819Z,10.30
2023-01-19T13:10:54.264Z,6.07
2023-01-19T13:13:23.843Z,7.72
2023-01-19T13:15:51.243Z,2.17
2023-01-19T13:18:34.052Z,2.33
2023-01-19T13:21:04.786Z,4.10
2023-01-19T13:23:52.439Z,4.27
2023-01-19T13:26:22.002Z,9.10
2023-01-19T13:28:53.647Z,4.03
2023-01-19T13:31:20.993Z,3.20
2023-01-19T13:34:01.492Z,5.00
2023-01-19T13:36:34.269Z,5.07
2023-01-19T13:39:04.771Z,4.35
2023-01-19T13:41:36.224Z,2.75
2023-01-19T13:44:27.664Z,2.10
2023-01-19T13:46:56.559Z,4.95
2023-01-19T13:49:31.969Z,3.20
2023-01-19T13:52:12.793Z,4.18
2023-01-19T13:54:56.983Z,6.70
2023-01-19T13:57:47.463Z,4.88
2023-01-19T14:00:20.511Z,3.47
2023-01-19T14:02:53.513Z,3.50
2023-01-19T14:05:34.047Z,3.47
2023-01-19T14:08:13.014Z,3.97
2023-01-19T14:10:45.911Z,3.88
2023-01-19T14:13:18.512Z,4.85
2023-01-19T14:15:46.617Z,3.73
2023-01-19T14:18:18.979Z,2.05
2023-01-19T14:20:57.734Z,2.63
2023-01-19T14:23:52.096Z,5.30
2023-01-19T14:26:37.609Z,5.25
2023-01-19T14:29:34.310Z,3.73
2023-01-19T14:32:00.680Z,6.35
2023-01-19T14:34:54.091Z,3.75
2023-01-19T14:37:26.605Z,0.93
2023-01-19T14:40:08.085Z,3.55
2023-01-19T14:42:45.332Z,3.73
2023-01-19T14:45:17.208Z,2.78
2023-01-19T14:47:46.896Z,4.20
2023-01-19T14:50:19.749Z,4.70
2023-01-19T14:52:52.753Z,1.13
2023-01-19T14:55:28.115Z,3.83
2023-01-19T14:57:55.216Z,4.53
2023-01-19T15:00:22.093Z,6.47
2023-01-19T15:02:48.601Z,6.25
2023-01-19T15:05:15.449Z,2.80
2023-01-19T15:07:44.632Z,3.70
2023-01-19T15:10:15.499Z,8.65
2023-01-19T15:12:42.156Z,3.50
2023-01-19T15:15:30.291Z,0.70
2023-01-19T15:17:58.940Z,3.30
2023-01-19T15:20:25.389Z,4.27
2023-01-19T15:22:51.891Z,2.58
2023-01-19T15:25:21.716Z,4.47
2023-01-19T15:27:48.894Z,5.78
2023-01-19T15:30:18.277Z,6.38
2023-01-19T15:32:45.001Z,9.33
2023-01-19T15:35:15.824Z,5.85
2023-01-19T15:37:42.316Z,3.60
2023-01-19T15:40:09.595Z,3.65
2023-01-19T15:42:36.082Z,4.18
2023-01-19T15:45:02.656Z,3.57
2023-01-19T15:47:29.127Z,7.63
2023-01-19T15:49:55.553Z,5.75
2023-01-19T15:52:22.095Z,3.38
2023-01-19T15:54:48.592Z,5.90
2023-01-19T15:57:14.994Z,6.63
2023-01-19T15:59:41.448Z,10.82
2023-01-19T16:02:09.707Z,3.95
2023-01-19T16:04:36.171Z,4.03
2023-01-19T16:07:02.619Z,5.93
2023-01-19T16:09:29.231Z,9.63
2023-01-19T16:11:57.185Z,11.20
2023-01-19T16:14:23.668Z,10.02
2023-01-19T16:16:50.213Z,37.60
2023-01-19T16:19:16.849Z,95.85
2023-01-19T16:21:44.295Z,31.20
2023-01-19T16:24:10.816Z,18.48
2023-01-19T16:26:37.331Z,20.77
2023-01-19T16:29:08.751Z,21.55
2023-01-19T16:31:36.438Z,16.67
2023-01-19T16:34:02.937Z,14.57
2023-01-19T16:36:32.281Z,17.67
2023-01-19T16:39:00.326Z,14.90
2023-01-19T16:41:26.941Z,16.23
2023-01-19T16:43:54.852Z,18.90
2023-01-19T16:46:24.301Z,13.87
2023-01-19T16:48:52.097Z,11.88
2023-01-19T16:51:19.577Z,11.95
2023-01-19T16:53:46.100Z,12.55
2023-01-19T16:56:14.374Z,14.38
2023-01-19T16:58:41.551Z,16.87
2023-01-19T17:01:20.002Z,16.70
2023-01-19T17:03:47.184Z,16.73
2023-01-19T17:06:18.234Z,16.65
2023-01-19T17:08:44.741Z,16.67
2023-01-19T17:11:20.546Z,11.43
2023-01-19T17:13:48.610Z,9.20
2023-01-19T17:16:15.650Z,12.20
2023-01-19T17:18:42.230Z,13.82
2023-01-19T17:21:10.031Z,10.40
2023-01-19T17:23:37.728Z,7.27
2023-01-19T17:26:04.973Z,7.32
2023-01-19T17:28:31.548Z,9.23
2023-01-19T17:31:11.512Z,6.57
2023-01-19T17:33:39.247Z,7.85
2023-01-19T17:36:08.922Z,6.60
2023-01-19T17:38:36.389Z,8.68
2023-01-19T17:41:11.264Z,13.57
2023-01-19T17:43:37.649Z,11.48
2023-01-19T17:46:04.186Z,8.25
2023-01-19T17:48:30.685Z,11.50
2023-01-19T17:51:05.645Z,14.18
2023-01-19T17:53:33.411Z,14.95
2023-01-19T17:56:08.835Z,10.63
2023-01-19T17:58:35.498Z,9.73
2023-01-19T18:01:19.894Z,10.00
2023-01-19T18:03:46.918Z,9.23
2023-01-19T18:06:14.340Z,20.88
2023-01-19T18:08:42.929Z,25.40
2023-01-19T18:11:10.515Z,23.23
2023-01-19T18:13:37.437Z,24.27
2023-01-19T18:18:41.738Z,17.40
2023-01-19T18:21:09.990Z,17.05
2023-01-19T18:23:36.835Z,24.35
2023-01-19T18:26:09.770Z,23.47
2023-01-19T18:28:36.540Z,21.65
2023-01-19T18:31:07.698Z,17.08
2023-01-19T18:33:34.504Z,17.38
2023-01-19T18:36:01.107Z,13.60
2023-01-19T18:38:27.860Z,13.80
2023-01-19T18:41:06.322Z,12.63
2023-01-19T18:43:33.204Z,19.88
2023-01-19T18:46:00.133Z,17.02
2023-01-19T18:48:26.884Z,11.98
2023-01-19T18:50:53.799Z,12.33
2023-01-19T18:53:20.428Z,17.38
2023-01-19T18:55:55.327Z,15.88
2023-01-19T18:58:22.799Z,33.88
2023-01-19T19:00:49.916Z,20.33
2023-01-19T19:03:17.198Z,19.40
2023-01-19T19:05:43.721Z,17.70
2023-01-19T19:08:10.285Z,18.95
2023-01-19T19:10:36.952Z,17.85
2023-01-19T19:13:03.493Z,13.55
2023-01-19T19:15:32.395Z,13.33
2023-01-19T19:17:59.568Z,15.68
2023-01-19T19:20:26.497Z,10.25
2023-01-19T19:22:53.011Z,5.97
2023-01-19T19:25:19.455Z,5.80
2023-01-19T19:27:50.521Z,5.53
2023-01-19T19:30:17.486Z,6.25
2023-01-19T19:32:44.076Z,5.25
2023-01-19T19:35:12.415Z,6.82
2023-01-19T19:37:38.809Z,5.88
2023-01-19T19:40:05.655Z,5.17
2023-01-19T19:42:32.110Z,6.32
2023-01-19T19:44:58.506Z,5.07
2023-01-19T19:47:25.024Z,6.53
2023-01-19T19:49:51.543Z,3.22
2023-01-19T19:52:17.979Z,5.07
2023-01-19T19:54:45.176Z,3.25
2023-01-19T19:57:12.047Z,2.42
2023-01-19T19:59:38.621Z,1.90
2023-01-19T20:02:05.392Z,2.75
2023-01-19T20:06:11.720Z,1.93
2023-01-19T20:08:13.030Z,1.48
2023-01-19T20:10:39.681Z,2.88
2023-01-19T20:13:09.138Z,2.30
2023-01-19T20:15:39.354Z,2.83
2023-01-19T20:18:06.510Z,1.80
2023-01-19T20:20:33.861Z,2.88
2023-01-19T20:23:04.053Z,0.70
2023-01-19T20:25:30.535Z,2.78
2023-01-19T20:27:59.099Z,1.77
2023-01-19T20:30:26.720Z,8.97
2023-01-19T20:32:53.118Z,13.05
2023-01-19T20:35:19.578Z,4.05
2023-01-19T20:37:46.096Z,2.35
2023-01-19T20:40:12.881Z,1.65
2023-01-19T20:42:41.341Z,4.53
2023-01-19T20:45:08.498Z,1.73
2023-01-19T20:47:34.943Z,5.03
2023-01-19T20:50:01.421Z,1.95
2023-01-19T20:52:28.092Z,0.85
2023-01-19T20:54:54.818Z,4.10
2023-01-19T20:57:21.301Z,5.82
2023-01-19T20:59:47.784Z,7.90
2023-01-19T21:02:16.019Z,9.73
2023-01-19T21:04:42.924Z,3.47
2023-01-19T21:07:09.746Z,5.13
2023-01-19T21:09:37.505Z,4.15
2023-01-19T21:12:04.108Z,3.83
2023-01-19T21:14:30.579Z,4.72
2023-01-19T21:16:58.447Z,3.60
2023-01-19T21:19:25.407Z,5.40
2023-01-19T21:21:51.826Z,6.32
2023-01-19T21:24:18.391Z,8.80
2023-01-19T21:26:44.987Z,8.75
2023-01-19T21:29:13.325Z,4.50
2023-01-19T21:31:40.845Z,12.90
2023-01-19T21:34:07.478Z,10.60
2023-01-19T21:37:25.696Z,3.42
2023-01-19T21:39:52.141Z,4.38
2023-01-19T21:42:23.916Z,11.73
2023-01-19T21:44:53.367Z,7.23
2023-01-19T21:47:19.882Z,12.77
2023-01-19T21:49:46.624Z,26.30
2023-01-19T21:52:13.148Z,19.27
2023-01-19T21:54:39.606Z,13.48
2023-01-19T21:57:06.020Z,6.57
2023-01-19T21:59:32.431Z,5.85
2023-01-19T22:01:59.005Z,5.70
2023-01-19T22:04:25.689Z,7.18
2023-01-19T22:06:52.174Z,6.63
2023-01-19T22:09:18.600Z,6.70
2023-01-19T22:11:45.057Z,6.63
2023-01-19T22:14:11.499Z,7.38
2023-01-19T22:16:37.949Z,7.10
2023-01-19T22:19:07.281Z,6.90
2023-01-19T22:21:35.718Z,7.10
2023-01-19T22:24:04.530Z,10.18
2023-01-19T22:26:31.849Z,6.43
2023-01-19T22:29:01.113Z,5.78
2023-01-19T22:31:28.927Z,7.68
2023-01-19T22:33:56.320Z,7.57
2023-01-19T22:36:24.503Z,7.97
2023-01-19T22:38:55.140Z,8.52
2023-01-19T22:41:22.845Z,9.57
2023-01-19T22:43:50.887Z,7.70
2023-01-19T22:46:19.290Z,8.63
2023-01-19T22:48:47.556Z,7.75
2023-01-19T22:51:14.300Z,9.90
2023-01-19T22:53:41.074Z,9.85
2023-01-19T22:56:12.722Z,8.20
2023-01-19T22:58:44.220Z,6.60
2023-01-19T23:01:14.106Z,10.45
2023-01-19T23:03:41.061Z,6.55
2023-01-19T23:06:11.017Z,8.57
2023-01-19T23:08:38.230Z,7.57
2023-01-19T23:11:11.162Z,6.67
2023-01-19T23:13:37.970Z,7.78
2023-01-19T23:16:05.376Z,9.15
2023-01-19T23:18:32.575Z,8.65
2023-01-19T23:21:07.850Z,7.50
2023-01-19T23:23:34.962Z,9.27
2023-01-19T23:26:12.301Z,7.90
2023-01-19T23:28:39.511Z,8.57
2023-01-19T23:31:25.787Z,7.38
2023-01-19T23:33:55.627Z,7.75
2023-01-19T23:36:23.909Z,7.80
2023-01-19T23:38:53.483Z,7.22
2023-01-19T23:41:20.749Z,6.60
2023-01-19T23:43:47.479Z,6.60
2023-01-19T23:46:15.408Z,6.82
2023-01-19T23:48:42.333Z,7.40
2023-01-19T23:51:12.406Z,8.05
2023-01-19T23:53:39.025Z,6.60
2023-01-19T23:56:25.886Z,9.05
2023-01-19T23:58:58.334Z,5.38
